Stations météo

réclame
Mon MeteoGroup
Ernage, Belgique (6459): Température de l'air & dewpoint: 10.11.2018 00:00:00 - 16.11.2018 00:00:00 (CET)Ernage, Belgique (6459): Vitesse du vent & gusts: 10.11.2018 00:00:00 - 16.11.2018 00:00:00 (CET)Ernage, Belgique (6459): Direction du vent: 10.11.2018 00:00:00 - 16.11.2018 00:00:00 (CET)Ernage, Belgique (6459): reduced air pressure: 10.11.2018 00:00:00 - 16.11.2018 00:00:00 (CET)Ernage, Belgique (6459): Ensoleillement: 10.11.2018 00:00:00 - 16.11.2018 00:00:00 (CET)Ernage, Belgique (6459): Quantités de précipitations: 10.11.2018 00:00:00 - 16.11.2018 00:00:00 (CET)
Date & Time tt [°C] td [°C] ff [km/h] ff [knt] fx [km/h] fx [knt] dd ppp [hPa] sd [min] rr [mm]
16.11.2018 00:00:00 4,7 4,7 15 8 23 13 SSE 1025,8 0 0,0
15.11.2018 23:00:00 5,0 5,0 15 8 21 12 SSE 1026,0 0 0,0
15.11.2018 22:00:00 5,3 4,8 11 6 17 9 SSE 1025,5 0 0,0
15.11.2018 21:00:00 5,1 2,9 9 5 17 9 SSE 1025,3 0 0,0
15.11.2018 20:00:00 5,2 3,4 7 4 14 7 SSE 1025,0 0 0,0
15.11.2018 19:00:00 5,6 3,6 7 4 14 7 ESE 1024,5 0 0,0
15.11.2018 18:00:00 8,2 4,6 4 2 10 6 ESE 1024,2 0 0,0
15.11.2018 17:00:00 11,4 5,3 6 3 12 6 ESE 1024,0 44 0,0
15.11.2018 16:00:00 14,1 6,8 9 5 16 9 SE 1023,6 60 0,0
15.11.2018 15:00:00 15,0 6,6 10 5 16 9 SE 1023,9 60 0,0
15.11.2018 14:00:00 14,9 6,9 9 5 18 10 SE 1023,9 60 0,0
15.11.2018 13:00:00 14,1 5,8 11 6 19 10 SE 1024,3 60 0,0
15.11.2018 12:00:00 12,8 6,2 14 7 21 11 SE 1024,5 60 0,0
15.11.2018 11:00:00 11,1 6,2 13 7 20 11 SE 1025,1 60 0,0
15.11.2018 10:00:00 8,7 5,1 15 8 21 12 SE 1025,3 60 0,0
15.11.2018 09:00:00 6,7 4,0 11 6 16 9 SE 1025,3 2 0,0
15.11.2018 08:00:00 5,3 3,4 10 5 15 8 SE 1025,3 0 0,0
15.11.2018 07:00:00 4,5 3,2 11 6 13 7 SE 1025,1 0 0,0
15.11.2018 06:00:00 4,5 3,2 10 5 14 8 SE 1024,9 0 0,0
15.11.2018 05:00:00 5,7 4,2 10 6 15 8 SE 1024,9 0 0,0
15.11.2018 04:00:00 6,0 4,4 11 6 16 8 SE 1025,0 0 0,0
15.11.2018 03:00:00 5,3 4,0 8 5 13 7 SE 1025,3 0 0,0
15.11.2018 02:00:00 4,7 3,2 7 4 10 6 SE 1025,4 0 0,0
15.11.2018 01:00:00 5,5 3,6 11 6 16 9 SE 1025,5 0 0,0
15.11.2018 00:00:00 5,6 3,6 7 4 13 7 SE 1025,5 0 0,0
14.11.2018 23:00:00 5,4 4,0 8 4 14 8 SE 1025,6 0 0,0
14.11.2018 22:00:00 5,1 4,0 8 4 14 7 ESE 1025,8 0 0,0
14.11.2018 21:00:00 5,5 4,1 8 5 14 8 ESE 1025,9 0 0,0
14.11.2018 20:00:00 5,4 3,6 10 5 14 8 SE 1026,3 0 0,0
14.11.2018 19:00:00 5,8 4,1 7 4 11 6 SE 1026,3 0 0,0
14.11.2018 18:00:00 7,5 5,2 8 4 12 6 ESE 1026,2 0 0,0
14.11.2018 17:00:00 9,5 5,9 10 6 16 9 SE 1026,5 48 0,0
14.11.2018 16:00:00 11,9 6,8 11 6 18 10 SE 1026,9 60 0,0
14.11.2018 15:00:00 12,1 6,8 12 7 22 12 SSE 1027,0 60 0,0
14.11.2018 14:00:00 11,9 7,4 14 7 24 13 SSE 1027,4 60 0,0
14.11.2018 13:00:00 11,4 6,7 14 8 21 11 S 1027,9 60 0,0
14.11.2018 12:00:00 10,5 7,5 14 8 24 13 S 1028,1 60 0,0
14.11.2018 11:00:00 9,2 7,3 11 6 17 9 SSE 1028,5 60 0,0
14.11.2018 10:00:00 7,4 7,2 8 5 16 9 SSE 1029,0 60 0,0
14.11.2018 09:00:00 5,1 5,0 10 5 17 9 SSE 1029,2 4 0,0
14.11.2018 08:00:00 4,9 4,8 10 5 17 9 SSE 1028,7 0 0,0
14.11.2018 07:00:00 5,0 4,9 11 6 16 9 SSE 1028,7 0 0,0
14.11.2018 06:00:00 4,7 4,5 9 5 16 9 SE 1029,1 0 0,0
14.11.2018 05:00:00 5,8 5,5 11 6 14 8 SSE 1029,4 - -
14.11.2018 04:00:00 5,6 5,1 11 6 - - SSE 1029,6 - -
14.11.2018 03:00:00 6,5 5,9 8 5 14 8 SSE 1030,4 0 0,0
14.11.2018 02:00:00 6,4 5,8 8 4 12 6 S 1030,4 0 0,0
14.11.2018 01:00:00 7,0 6,1 7 4 13 7 S 1030,5 0 0,0
14.11.2018 00:00:00 7,4 6,3 9 5 17 9 S 1030,2 0 0,0
13.11.2018 23:00:00 7,2 6,1 9 5 13 7 S 1030,3 0 0,0
13.11.2018 22:00:00 7,3 5,9 8 5 16 9 S 1030,1 0 0,0
13.11.2018 21:00:00 8,4 6,5 10 6 16 9 S 1029,5 0 0,0
13.11.2018 20:00:00 9,0 6,7 10 5 18 10 SSW 1029,4 0 0,0
13.11.2018 19:00:00 9,8 7,2 11 6 19 10 S 1028,8 0 0,0
13.11.2018 18:00:00 10,4 7,2 13 7 21 11 SSW 1028,5 0 0,0
13.11.2018 17:00:00 10,8 7,2 16 8 27 14 SW 1027,9 6 0,0
13.11.2018 16:00:00 11,5 7,2 17 9 31 17 SW 1027,2 33 0,0
13.11.2018 15:00:00 11,5 7,7 17 9 40 21 SW 1026,3 26 0,0
13.11.2018 14:00:00 11,4 7,4 21 12 38 21 SW 1026,3 8 0,0
13.11.2018 13:00:00 11,1 7,5 25 14 40 22 SW 1025,8 17 0,0
13.11.2018 12:00:00 10,2 7,9 20 11 39 21 SW 1025,5 1 0,0
13.11.2018 11:00:00 10,9 7,5 26 14 43 23 SSW 1024,9 42 0,0
13.11.2018 10:00:00 10,3 7,5 24 13 49 26 SW 1023,9 4 0,0
13.11.2018 09:00:00 9,9 7,8 22 12 37 20 SSW 1023,0 0 0,0
13.11.2018 08:00:00 9,9 7,9 20 11 31 17 SSW 1022,3 0 0,0
13.11.2018 07:00:00 9,9 8,2 18 10 27 15 SSW 1021,7 0 0,0
13.11.2018 06:00:00 9,4 8,1 16 9 30 16 SSW 1021,0 0 0,0
13.11.2018 05:00:00 9,2 7,8 16 8 27 14 S 1020,3 0 0,0
13.11.2018 04:00:00 9,5 7,7 17 9 25 14 S 1020,2 0 0,0
13.11.2018 03:00:00 9,4 7,9 16 8 23 13 S 1020,2 0 0,0
13.11.2018 02:00:00 9,1 8,0 14 8 22 12 S 1019,8 0 0,0
13.11.2018 01:00:00 8,8 8,1 11 6 16 8 S 1019,6 0 0,0
13.11.2018 00:00:00 8,5 7,8 10 6 18 10 SSE 1019,5 0 0,0
12.11.2018 23:00:00 8,5 7,9 11 6 16 9 SSE 1019,3 0 0,0
12.11.2018 22:00:00 8,6 7,9 9 5 16 9 S 1018,6 0 0,0
12.11.2018 21:00:00 8,6 8,0 10 6 15 8 S 1019,0 0 0,0
12.11.2018 20:00:00 8,6 7,9 9 5 17 9 S 1018,8 0 0,0
12.11.2018 19:00:00 9,0 8,4 11 6 18 10 S 1018,4 0 0,0
12.11.2018 18:00:00 9,2 8,3 10 6 18 10 SSW 1017,3 0 0,0
12.11.2018 17:00:00 9,5 8,4 11 6 18 10 SW 1016,4 - -
12.11.2018 16:00:00 10,0 8,8 12 6 23 12 SW 1015,6 0 0,0
12.11.2018 15:00:00 10,3 9,2 11 6 16 9 SW 1015,1 0 0,0
12.11.2018 14:00:00 10,1 9,4 11 6 21 11 SW 1014,1 0 0,1
12.11.2018 13:00:00 10,0 9,9 18 10 26 14 WSW 1014,5 0 0,6
12.11.2018 12:00:00 10,2 10,1 9 5 15 8 WSW 1013,6 0 0,4
12.11.2018 11:00:00 10,1 10,0 9 5 12 6 WSW 1013,0 0 0,0
12.11.2018 10:00:00 9,9 9,7 7 4 10 5 SW 1012,6 0 0,4
12.11.2018 09:00:00 9,9 9,7 9 5 14 7 WSW 1012,7 0 1,5
12.11.2018 08:00:00 9,9 9,7 4 2 10 6 S 1011,9 0 0,4
12.11.2018 07:00:00 10,0 9,7 7 4 11 6 SSE 1012,1 0 0,4
12.11.2018 06:00:00 10,0 9,6 8 5 13 7 SSE 1012,0 0 0,7
12.11.2018 05:00:00 10,2 9,6 9 5 16 9 SE 1011,5 0 0,3
12.11.2018 04:00:00 10,4 9,5 10 5 20 11 SSE 1012,0 0 0,5
12.11.2018 03:00:00 10,6 9,6 12 7 24 13 S 1012,0 0 0,0
12.11.2018 02:00:00 10,6 9,4 10 5 20 11 SSE 1011,9 0 0,0
12.11.2018 01:00:00 10,5 9,3 11 6 17 9 SSE 1012,4 0 0,0
12.11.2018 00:00:00 10,5 9,2 9 5 17 9 S 1012,1 0 0,0
11.11.2018 23:00:00 10,7 8,9 10 6 18 10 S 1012,0 0 0,0
11.11.2018 22:00:00 11,0 8,9 9 5 24 13 S 1011,5 0 0,0
11.11.2018 21:00:00 11,3 8,7 15 8 29 16 SSW 1010,5 0 0,0
11.11.2018 20:00:00 11,3 8,6 19 10 33 18 SSW 1009,9 0 0,0
11.11.2018 19:00:00 11,7 9,0 22 12 34 18 S 1009,1 0 0,1
11.11.2018 18:00:00 11,7 9,3 20 11 36 19 S 1008,2 0 0,0
11.11.2018 17:00:00 11,6 9,3 22 12 36 19 S 1007,7 - -
11.11.2018 16:00:00 11,7 8,6 20 11 42 23 S 1007,6 0 0,0
11.11.2018 15:00:00 11,9 8,8 29 16 45 25 S 1007,2 0 0,0
11.11.2018 14:00:00 11,6 9,7 23 12 36 20 S 1006,8 0 0,4
11.11.2018 13:00:00 11,8 9,3 22 12 - - S 1006,9 - -
11.11.2018 12:00:00 12,4 8,2 24 13 44 24 S 1006,7 0 0,0
11.11.2018 11:00:00 12,5 8,7 25 14 44 24 S 1005,8 17 0,0
11.11.2018 10:00:00 11,6 8,5 26 14 46 25 S 1005,2 14 0,0
11.11.2018 09:00:00 11,2 8,3 24 13 41 22 S 1004,6 0 0,0
11.11.2018 08:00:00 10,8 8,5 20 11 35 19 S 1003,9 0 0,0
11.11.2018 07:00:00 10,5 8,8 22 12 35 19 S 1003,3 0 0,1
11.11.2018 06:00:00 10,3 9,1 24 13 39 21 S 1003,3 0 0,4
11.11.2018 05:00:00 10,9 8,5 25 14 40 21 S 1003,0 - -
11.11.2018 04:00:00 11,0 8,5 20 11 38 20 S 1002,9 0 0,0
11.11.2018 03:00:00 11,0 8,8 24 13 37 20 S 1003,3 0 0,0
11.11.2018 02:00:00 11,5 9,0 22 12 36 20 S 1003,3 0 0,0
11.11.2018 01:00:00 11,4 9,4 18 10 32 17 S 1003,1 0 0,0
11.11.2018 00:00:00 11,7 9,7 20 11 34 19 S 1003,2 0 0,0
10.11.2018 23:00:00 11,2 9,6 16 9 29 16 S 1003,1 0 0,0
10.11.2018 22:00:00 11,4 10,1 16 9 29 16 S 1002,8 0 0,0
10.11.2018 21:00:00 11,5 10,7 20 11 32 17 S 1002,8 0 1,6
10.11.2018 20:00:00 11,3 10,3 10 5 28 15 S 1002,7 0 0,0
10.11.2018 19:00:00 11,3 10,5 14 8 29 16 S 1002,2 0 1,7
10.11.2018 18:00:00 11,5 10,5 15 8 35 19 SW 1002,2 0 0,0
10.11.2018 17:00:00 11,7 10,7 18 10 32 18 S 1001,8 - -
10.11.2018 16:00:00 12,0 10,5 19 11 32 17 S 1001,8 1 0,0
10.11.2018 15:00:00 11,6 10,8 19 10 28 15 S 1001,6 0 0,2
10.11.2018 14:00:00 11,0 10,3 16 9 32 17 SSE 1001,9 0 2,1
10.11.2018 13:00:00 11,4 9,9 22 12 31 17 S 1002,4 0 0,1
10.11.2018 12:00:00 11,6 9,9 21 11 35 19 S 1003,0 0 0,0
10.11.2018 11:00:00 11,7 9,5 20 11 36 19 S 1003,2 0 0,0
10.11.2018 10:00:00 11,6 9,5 21 11 35 19 S 1003,0 0 0,0
10.11.2018 09:00:00 11,3 9,5 22 12 38 21 S 1002,7 0 0,0
10.11.2018 08:00:00 11,2 9,6 27 14 48 26 S 1002,4 0 0,0
10.11.2018 07:00:00 11,1 9,8 25 14 - - S 1001,9 - -
10.11.2018 06:00:00 11,2 9,1 31 17 53 29 S 1001,7 0 0,8
10.11.2018 05:00:00 12,5 7,8 25 14 47 25 S 1001,2 - -
10.11.2018 04:00:00 12,4 8,6 22 12 39 21 S 1002,0 0 0,0
10.11.2018 03:00:00 11,8 8,5 20 11 31 17 SSE 1002,8 0 0,0
10.11.2018 02:00:00 11,2 8,5 19 10 33 18 SSE 1003,8 0 0,0
10.11.2018 01:00:00 10,9 8,7 22 12 27 15 SSE 1004,9 0 0,0
10.11.2018 00:00:00 10,7 8,7 16 9 34 19 SSE 1005,9 0 0,0

tt = Température de l'air
td = dewpoint
ff = Vitesse du vent
fx = gusts
dd = Direction du vent
ppp = reduced air pressure
sd = Ensoleillement
rr = Quantités de précipitations

stations d'obs. à proximité